createdAt,value
2022-10-22T00:00:16.683Z,74.51
2022-10-22T00:03:03.656Z,74.20
2022-10-22T00:05:30.653Z,74.45
2022-10-22T00:07:57.435Z,74.51
2022-10-22T00:10:24.474Z,74.75
2022-10-22T00:12:51.249Z,74.68
2022-10-22T00:15:18.314Z,75.30
2022-10-22T00:17:45.209Z,74.99
2022-10-22T00:20:12.209Z,75.04
2022-10-22T00:22:39.062Z,74.63
2022-10-22T00:25:06.419Z,74.91
2022-10-22T00:27:33.197Z,75.13
2022-10-22T00:30:00.221Z,74.80
2022-10-22T00:32:27.090Z,75.48
2022-10-22T00:34:54.086Z,75.17
2022-10-22T00:37:20.973Z,75.37
2022-10-22T00:39:48.471Z,75.40
2022-10-22T00:42:20.777Z,75.57
2022-10-22T00:45:25.547Z,75.76
2022-10-22T00:47:57.857Z,75.76
2022-10-22T00:50:39.920Z,75.68
2022-10-22T00:53:13.224Z,75.73
2022-10-22T00:55:43.793Z,75.53
2022-10-22T00:58:12.666Z,76.26
2022-10-22T01:00:40.033Z,76.04
2022-10-22T01:03:07.157Z,75.94
2022-10-22T01:05:51.654Z,75.99
2022-10-22T01:08:56.021Z,75.57
2022-10-22T01:11:53.518Z,75.72
2022-10-22T01:14:41.147Z,75.58
2022-10-22T01:17:40.311Z,75.59
2022-10-22T01:20:56.943Z,75.60
2022-10-22T01:24:17.061Z,75.47
2022-10-22T01:27:31.779Z,75.58
2022-10-22T01:30:08.447Z,75.49
2022-10-22T01:32:51.298Z,75.23
2022-10-22T01:35:27.972Z,76.04
2022-10-22T01:38:01.494Z,75.87
2022-10-22T01:40:30.365Z,75.91
2022-10-22T01:43:05.711Z,76.14
2022-10-22T01:45:47.226Z,75.69
2022-10-22T01:48:32.882Z,75.70
2022-10-22T01:51:21.491Z,75.55
2022-10-22T01:53:59.030Z,75.20
2022-10-22T01:56:53.956Z,75.11
2022-10-22T01:59:42.247Z,75.24
2022-10-22T02:05:26.666Z,76.01
2022-10-22T02:08:06.337Z,75.58
2022-10-22T02:10:37.433Z,75.39
2022-10-22T02:13:13.276Z,75.11
2022-10-22T02:15:44.795Z,75.48
2022-10-22T02:18:14.315Z,75.79
2022-10-22T02:20:42.630Z,75.44
2022-10-22T02:23:11.211Z,75.41
2022-10-22T02:25:48.709Z,75.74
2022-10-22T02:28:58.643Z,75.70
2022-10-22T02:31:33.131Z,76.07
2022-10-22T02:34:10.168Z,76.62
2022-10-22T02:36:40.839Z,76.03
2022-10-22T02:39:10.870Z,76.45
2022-10-22T02:41:38.218Z,76.86
2022-10-22T02:44:10.945Z,76.50
2022-10-22T02:46:40.102Z,76.83
2022-10-22T02:49:07.313Z,76.72
2022-10-22T02:51:34.216Z,77.19
2022-10-22T02:54:01.294Z,77.08
2022-10-22T02:56:28.899Z,76.57
2022-10-22T02:58:55.888Z,76.88
2022-10-22T03:01:22.815Z,76.40
2022-10-22T03:03:50.022Z,77.03
2022-10-22T03:06:17.375Z,76.94
2022-10-22T03:08:44.493Z,76.68
2022-10-22T03:11:11.419Z,76.54
2022-10-22T03:13:38.442Z,76.66
2022-10-22T03:16:05.926Z,76.38
2022-10-22T03:18:33.010Z,76.44
2022-10-22T03:21:10.031Z,76.25
2022-10-22T03:23:40.414Z,76.27
2022-10-22T03:26:08.416Z,76.48
2022-10-22T03:28:38.213Z,76.51
2022-10-22T03:31:05.250Z,76.16
2022-10-22T03:33:32.303Z,76.45
2022-10-22T03:36:00.576Z,76.18
2022-10-22T03:38:28.845Z,75.93
2022-10-22T03:40:55.818Z,76.42
2022-10-22T03:43:22.890Z,76.01
2022-10-22T03:45:49.657Z,76.19
2022-10-22T03:48:16.603Z,75.79
2022-10-22T03:50:43.394Z,75.93
2022-10-22T03:53:10.714Z,75.84
2022-10-22T03:55:40.683Z,75.86
2022-10-22T03:58:07.721Z,75.98
2022-10-22T04:00:35.949Z,75.98
2022-10-22T04:03:03.310Z,75.52
2022-10-22T04:05:30.193Z,75.09
2022-10-22T04:07:57.204Z,75.72
2022-10-22T04:10:24.006Z,75.91
2022-10-22T04:12:51.496Z,75.48
2022-10-22T04:15:18.321Z,74.82
2022-10-22T04:17:45.274Z,75.36
2022-10-22T04:20:12.058Z,74.93
2022-10-22T04:22:39.141Z,74.19
2022-10-22T04:25:06.323Z,74.20
2022-10-22T04:27:35.685Z,74.83
2022-10-22T04:30:05.052Z,74.63
2022-10-22T04:32:32.217Z,75.02
2022-10-22T04:34:58.977Z,74.67
2022-10-22T04:37:25.976Z,74.81
2022-10-22T04:39:52.807Z,74.42
2022-10-22T04:42:19.807Z,74.41
2022-10-22T04:44:46.641Z,74.27
2022-10-22T04:47:13.690Z,74.55
2022-10-22T04:49:40.752Z,74.21
2022-10-22T04:52:07.870Z,75.04
2022-10-22T04:54:34.735Z,74.39
2022-10-22T04:57:01.942Z,74.76
2022-10-22T04:59:28.830Z,75.23
2022-10-22T05:01:55.961Z,76.10
2022-10-22T05:04:22.892Z,75.49
2022-10-22T05:06:49.946Z,75.50
2022-10-22T05:09:20.146Z,75.68
2022-10-22T05:11:51.019Z,75.73
2022-10-22T05:14:24.787Z,75.92
2022-10-22T05:16:52.767Z,75.81
2022-10-22T05:19:27.454Z,76.36
2022-10-22T05:21:57.576Z,76.76
2022-10-22T05:24:26.332Z,76.92
2022-10-22T05:26:56.100Z,77.49
2022-10-22T05:29:23.821Z,77.81
2022-10-22T05:31:51.039Z,78.07
2022-10-22T05:34:18.247Z,78.45
2022-10-22T05:36:46.193Z,78.67
2022-10-22T05:39:13.408Z,78.32
2022-10-22T05:41:40.629Z,78.84
2022-10-22T05:44:07.639Z,78.58
2022-10-22T05:46:36.501Z,78.81
2022-10-22T05:49:06.796Z,78.91
2022-10-22T05:51:37.155Z,78.94
2022-10-22T05:54:08.210Z,78.90
2022-10-22T05:56:37.381Z,79.78
2022-10-22T05:59:04.829Z,80.05
2022-10-22T06:01:35.411Z,81.12
2022-10-22T06:04:06.775Z,80.59
2022-10-22T06:06:36.955Z,81.27
2022-10-22T06:09:20.171Z,80.94
2022-10-22T06:11:48.234Z,81.14
2022-10-22T06:14:16.132Z,81.17
2022-10-22T06:16:43.716Z,81.07
2022-10-22T06:19:17.516Z,81.22
2022-10-22T06:21:45.671Z,81.09
2022-10-22T06:24:13.225Z,81.32
2022-10-22T06:26:41.299Z,81.54
2022-10-22T06:29:08.715Z,81.89
2022-10-22T06:31:39.076Z,81.11
2022-10-22T06:34:11.020Z,80.81
2022-10-22T06:39:06.891Z,81.14
2022-10-22T06:41:34.163Z,81.23
2022-10-22T06:44:01.072Z,82.08
2022-10-22T06:46:28.514Z,82.24
2022-10-22T06:49:02.534Z,81.20
2022-10-22T06:51:30.019Z,81.62
2022-10-22T06:53:58.180Z,81.89
2022-10-22T06:56:29.307Z,81.81
2022-10-22T06:58:58.331Z,81.78
2022-10-22T07:01:33.152Z,81.27
2022-10-22T07:04:01.618Z,82.17
2022-10-22T07:06:30.528Z,82.44
2022-10-22T07:09:00.067Z,81.95
2022-10-22T07:11:32.737Z,81.99
2022-10-22T07:14:00.420Z,82.44
2022-10-22T07:16:31.192Z,82.26
2022-10-22T07:19:00.818Z,82.28
2022-10-22T07:21:29.120Z,82.46
2022-10-22T07:23:56.933Z,82.22
2022-10-22T07:26:25.448Z,82.56
2022-10-22T07:28:53.106Z,81.62
2022-10-22T07:31:21.161Z,82.03
2022-10-22T07:33:48.306Z,81.30
2022-10-22T07:36:20.425Z,81.81
2022-10-22T07:38:54.330Z,82.39
2022-10-22T07:41:21.696Z,82.20
2022-10-22T07:43:48.571Z,82.46
2022-10-22T07:46:15.976Z,82.68
2022-10-22T07:48:42.918Z,82.30
2022-10-22T07:51:10.238Z,83.19
2022-10-22T07:53:37.625Z,82.91
2022-10-22T07:56:05.716Z,82.70
2022-10-22T07:58:32.713Z,83.35
2022-10-22T08:01:03.098Z,82.82
2022-10-22T08:03:30.100Z,83.11
2022-10-22T08:05:57.364Z,83.19
2022-10-22T08:08:27.200Z,83.22
2022-10-22T08:10:59.387Z,83.54
2022-10-22T08:13:27.607Z,83.23
2022-10-22T08:15:57.422Z,83.73
2022-10-22T08:18:25.715Z,83.67
2022-10-22T08:20:52.854Z,83.61
2022-10-22T08:23:24.413Z,83.94
2022-10-22T08:25:54.617Z,83.69
2022-10-22T08:28:22.382Z,83.68
2022-10-22T08:30:49.846Z,84.10
2022-10-22T08:33:17.039Z,84.13
2022-10-22T08:35:49.891Z,84.36
2022-10-22T08:38:16.981Z,83.94
2022-10-22T08:40:52.256Z,84.39
2022-10-22T08:43:26.090Z,84.59
2022-10-22T08:46:31.816Z,84.17
2022-10-22T08:49:03.162Z,84.67
2022-10-22T08:51:35.861Z,84.84
2022-10-22T08:54:22.676Z,84.37
2022-10-22T08:57:09.080Z,84.15
2022-10-22T08:59:39.393Z,84.25
2022-10-22T09:02:24.883Z,84.95
2022-10-22T09:05:16.092Z,84.74
2022-10-22T09:07:48.689Z,85.47
2022-10-22T09:10:24.624Z,84.68
2022-10-22T09:12:51.760Z,84.72
2022-10-22T09:15:19.799Z,85.51
2022-10-22T09:18:06.443Z,84.80
2022-10-22T09:21:56.148Z,84.86
2022-10-22T09:24:45.001Z,85.21
2022-10-22T09:27:32.323Z,84.73
2022-10-22T09:30:01.803Z,84.89
2022-10-22T09:32:29.258Z,84.72
2022-10-22T09:34:58.377Z,85.02
2022-10-22T09:37:30.040Z,84.52
2022-10-22T09:40:04.020Z,84.89
2022-10-22T09:42:33.783Z,84.99
2022-10-22T09:45:00.924Z,84.79
2022-10-22T09:48:01.204Z,84.82
2022-10-22T09:50:50.507Z,85.18
2022-10-22T09:53:51.916Z,85.06
2022-10-22T09:56:29.041Z,85.18
2022-10-22T09:58:58.036Z,85.08
2022-10-22T10:01:32.658Z,85.37
2022-10-22T10:04:09.861Z,85.03
2022-10-22T10:06:40.596Z,85.20
2022-10-22T10:09:22.342Z,85.00
2022-10-22T10:12:25.372Z,84.36
2022-10-22T10:15:17.314Z,84.81
2022-10-22T10:18:46.178Z,85.05
2022-10-22T10:22:20.478Z,85.04
2022-10-22T10:25:12.078Z,85.05
2022-10-22T10:29:03.177Z,85.16
2022-10-22T10:31:50.175Z,84.92
2022-10-22T10:34:50.952Z,84.92
2022-10-22T10:37:34.234Z,84.98
2022-10-22T10:41:10.602Z,84.88
2022-10-22T10:44:16.526Z,85.41
2022-10-22T10:46:57.774Z,85.38
2022-10-22T10:49:31.423Z,85.67
2022-10-22T10:52:41.478Z,85.93
2022-10-22T10:55:30.787Z,85.41
2022-10-22T10:58:21.169Z,85.45
2022-10-22T11:01:08.759Z,85.28
2022-10-22T11:03:44.719Z,85.44
2022-10-22T11:06:23.095Z,85.36
2022-10-22T11:09:07.637Z,85.52
2022-10-22T11:12:02.802Z,85.55
2022-10-22T11:14:41.156Z,85.37
2022-10-22T11:17:41.184Z,85.81
2022-10-22T11:20:21.299Z,85.95
2022-10-22T11:23:18.065Z,85.53
2022-10-22T11:25:50.160Z,85.05
2022-10-22T11:28:33.750Z,84.99
2022-10-22T11:31:10.692Z,84.69
2022-10-22T11:34:35.319Z,84.49
2022-10-22T11:37:06.224Z,84.13
2022-10-22T11:39:55.353Z,83.89
2022-10-22T11:42:40.146Z,83.69
2022-10-22T11:45:34.612Z,83.40
2022-10-22T11:48:10.281Z,83.09
2022-10-22T11:51:00.212Z,82.58
2022-10-22T11:53:39.299Z,82.53
2022-10-22T11:56:13.163Z,82.37
2022-10-22T11:58:43.974Z,82.57
2022-10-22T12:01:11.161Z,82.04
2022-10-22T12:03:57.666Z,82.30
2022-10-22T12:06:28.288Z,81.81
2022-10-22T12:09:07.299Z,81.40
2022-10-22T12:11:49.346Z,81.49
2022-10-22T12:14:26.546Z,80.70
2022-10-22T12:16:59.266Z,80.29
2022-10-22T12:19:42.068Z,80.33
2022-10-22T12:22:34.018Z,80.24
2022-10-22T12:25:09.599Z,80.06
2022-10-22T12:27:40.972Z,79.80
2022-10-22T12:30:37.516Z,79.62
2022-10-22T12:33:08.373Z,79.36
2022-10-22T12:35:44.558Z,78.63
2022-10-22T12:38:22.806Z,79.14
2022-10-22T12:40:54.146Z,78.34
2022-10-22T12:43:28.973Z,78.30
2022-10-22T12:45:57.811Z,77.90
2022-10-22T12:48:33.729Z,78.28
2022-10-22T12:51:03.945Z,78.00
2022-10-22T12:53:37.885Z,78.19
2022-10-22T12:56:12.248Z,77.72
2022-10-22T12:58:42.397Z,77.53
2022-10-22T13:01:17.151Z,76.71
2022-10-22T13:03:47.768Z,76.92
2022-10-22T13:06:20.911Z,77.04
2022-10-22T13:09:00.752Z,76.75
2022-10-22T13:11:43.243Z,76.82
2022-10-22T13:14:28.034Z,76.57
2022-10-22T13:17:19.303Z,76.01
2022-10-22T13:20:26.499Z,76.18
2022-10-22T13:23:03.424Z,75.88
2022-10-22T13:25:34.757Z,75.62
2022-10-22T13:28:13.785Z,74.92
2022-10-22T13:31:24.028Z,75.20
2022-10-22T13:33:56.350Z,73.95
2022-10-22T13:36:24.644Z,74.62
2022-10-22T13:38:52.196Z,73.81
2022-10-22T13:41:27.747Z,74.33
2022-10-22T13:43:55.450Z,73.59
2022-10-22T13:46:24.622Z,73.17
2022-10-22T13:48:55.234Z,73.00
2022-10-22T13:51:37.482Z,72.96
2022-10-22T13:54:14.739Z,71.94
2022-10-22T13:56:41.864Z,72.89
2022-10-22T13:59:10.485Z,72.33
2022-10-22T14:01:38.671Z,72.37
2022-10-22T14:04:10.859Z,71.87
2022-10-22T14:06:38.044Z,72.44
2022-10-22T14:09:13.660Z,72.45
2022-10-22T14:11:40.856Z,72.63
2022-10-22T14:14:09.257Z,72.62
2022-10-22T14:16:37.765Z,72.45
2022-10-22T14:19:09.572Z,72.83
2022-10-22T14:21:38.060Z,73.07
2022-10-22T14:24:07.249Z,72.62
2022-10-22T14:26:36.971Z,72.68
2022-10-22T14:29:09.324Z,73.06
2022-10-22T14:31:41.603Z,73.20
2022-10-22T14:34:13.923Z,72.85
2022-10-22T14:36:44.476Z,72.92
2022-10-22T14:39:12.801Z,72.53
2022-10-22T14:41:41.193Z,72.26
2022-10-22T14:44:14.477Z,72.32
2022-10-22T14:46:44.037Z,71.90
2022-10-22T14:49:11.095Z,71.86
2022-10-22T14:51:38.271Z,71.84
2022-10-22T14:54:05.213Z,72.39
2022-10-22T14:56:32.297Z,72.36
2022-10-22T14:58:59.328Z,72.45
2022-10-22T15:01:26.448Z,72.48
2022-10-22T15:03:53.360Z,72.49
2022-10-22T15:06:20.385Z,72.33
2022-10-22T15:08:47.293Z,73.23
2022-10-22T15:11:14.482Z,73.11
2022-10-22T15:13:42.202Z,73.48
2022-10-22T15:16:11.578Z,73.92
2022-10-22T15:18:38.471Z,74.38
2022-10-22T15:21:19.206Z,74.66
2022-10-22T15:23:46.696Z,74.54
2022-10-22T15:26:14.481Z,74.34
2022-10-22T15:28:42.748Z,74.31
2022-10-22T15:31:14.430Z,74.10
2022-10-22T15:33:43.121Z,74.02
2022-10-22T15:36:14.842Z,73.81
2022-10-22T15:38:46.000Z,74.04
2022-10-22T15:41:13.627Z,73.86
2022-10-22T15:44:01.985Z,74.11
2022-10-22T15:46:34.509Z,73.72
2022-10-22T15:49:02.537Z,74.20
2022-10-22T15:51:29.586Z,74.18
2022-10-22T15:53:59.363Z,74.50
2022-10-22T15:56:29.528Z,74.54
2022-10-22T15:59:00.960Z,75.16
2022-10-22T16:01:28.428Z,74.77
2022-10-22T16:04:02.674Z,74.88
2022-10-22T16:06:41.200Z,75.29
2022-10-22T16:09:12.074Z,74.97
2022-10-22T16:11:40.960Z,74.94
2022-10-22T16:14:08.149Z,75.29
2022-10-22T16:16:39.905Z,75.31
2022-10-22T16:19:07.459Z,75.80
2022-10-22T16:21:34.492Z,75.49
2022-10-22T16:24:06.099Z,75.64
2022-10-22T16:26:34.662Z,76.15
2022-10-22T16:29:02.265Z,76.04
2022-10-22T16:31:29.310Z,75.77
2022-10-22T16:33:57.234Z,75.51
2022-10-22T16:36:24.675Z,75.67
2022-10-22T16:38:51.522Z,75.46
2022-10-22T16:41:23.030Z,75.85
2022-10-22T16:43:55.314Z,75.63
2022-10-22T16:46:23.542Z,75.47
2022-10-22T16:48:52.971Z,75.56
2022-10-22T16:51:24.090Z,75.34
2022-10-22T16:53:52.998Z,75.40
2022-10-22T16:56:20.557Z,75.16
2022-10-22T16:58:54.810Z,75.09
2022-10-22T17:01:29.254Z,74.88
2022-10-22T17:04:00.209Z,74.82
2022-10-22T17:06:27.930Z,74.90
2022-10-22T17:08:55.208Z,75.00
2022-10-22T17:11:24.964Z,75.05
2022-10-22T17:13:54.484Z,75.33
2022-10-22T17:16:24.733Z,74.95
2022-10-22T17:18:54.255Z,74.98
2022-10-22T17:21:22.331Z,74.87
2022-10-22T17:23:56.545Z,74.66
2022-10-22T17:26:26.555Z,74.77
2022-10-22T17:28:54.743Z,74.94
2022-10-22T17:31:32.883Z,74.82
2022-10-22T17:34:02.509Z,74.99
2022-10-22T17:36:34.855Z,74.60
2022-10-22T17:39:07.581Z,74.55
2022-10-22T17:41:37.068Z,74.65
2022-10-22T17:44:09.297Z,74.64
2022-10-22T17:46:38.367Z,74.52
2022-10-22T17:49:15.109Z,75.01
2022-10-22T17:51:42.230Z,74.87
2022-10-22T17:54:10.216Z,75.13
2022-10-22T17:56:40.209Z,75.23
2022-10-22T17:59:09.905Z,75.64
2022-10-22T18:01:40.293Z,75.38
2022-10-22T18:04:08.726Z,75.59
2022-10-22T18:06:36.517Z,75.71
2022-10-22T18:09:10.707Z,75.54
2022-10-22T18:11:39.795Z,75.62
2022-10-22T18:14:06.855Z,75.90
2022-10-22T18:16:35.036Z,75.98
2022-10-22T18:19:02.088Z,75.86
2022-10-22T18:21:31.583Z,75.90
2022-10-22T18:23:59.907Z,75.75
2022-10-22T18:26:27.431Z,76.01
2022-10-22T18:28:56.903Z,75.79
2022-10-22T18:31:28.845Z,76.07
2022-10-22T18:33:56.953Z,75.97
2022-10-22T18:36:28.256Z,75.85
2022-10-22T18:39:00.041Z,75.78
2022-10-22T18:41:30.282Z,75.88
2022-10-22T18:44:01.807Z,76.18
2022-10-22T18:46:31.567Z,75.93
2022-10-22T18:48:59.369Z,75.99
2022-10-22T18:51:33.098Z,76.02
2022-10-22T18:54:21.812Z,76.14
2022-10-22T18:56:49.826Z,76.24
2022-10-22T18:59:23.237Z,76.32
2022-10-22T19:01:54.180Z,76.23
2022-10-22T19:04:21.927Z,76.30
2022-10-22T19:06:49.373Z,76.16
2022-10-22T19:09:17.571Z,76.06
2022-10-22T19:11:46.384Z,76.23
2022-10-22T19:14:15.855Z,75.96
2022-10-22T19:16:42.920Z,75.90
2022-10-22T19:19:15.135Z,76.10
2022-10-22T19:21:42.729Z,75.73
2022-10-22T19:24:14.669Z,76.24
2022-10-22T19:26:42.364Z,75.68
2022-10-22T19:29:11.054Z,75.94
2022-10-22T19:31:40.985Z,75.93
2022-10-22T19:34:09.955Z,75.97
2022-10-22T19:36:37.018Z,76.04
2022-10-22T19:39:05.388Z,75.88
2022-10-22T19:41:34.005Z,76.43
2022-10-22T19:44:02.013Z,76.32
2022-10-22T19:46:32.676Z,76.50
2022-10-22T19:49:02.618Z,76.34
2022-10-22T19:51:35.741Z,76.52
2022-10-22T19:54:07.769Z,76.53
2022-10-22T19:56:37.746Z,76.76
2022-10-22T19:59:09.318Z,76.69
2022-10-22T20:01:37.575Z,76.67
2022-10-22T20:04:04.731Z,76.60
2022-10-22T20:06:31.916Z,76.58
2022-10-22T20:08:59.317Z,77.08
2022-10-22T20:11:30.693Z,76.81
2022-10-22T20:14:05.355Z,76.98
2022-10-22T20:16:36.153Z,77.08
2022-10-22T20:24:25.669Z,76.91
2022-10-22T20:26:52.740Z,77.16
2022-10-22T20:29:20.090Z,77.02
2022-10-22T20:31:48.317Z,76.88
2022-10-22T20:34:15.740Z,76.85
2022-10-22T20:36:42.928Z,77.15
2022-10-22T20:39:15.433Z,76.83
2022-10-22T20:41:42.800Z,77.14
2022-10-22T20:45:05.071Z,77.05
2022-10-22T20:47:44.384Z,77.21
2022-10-22T20:50:21.298Z,77.27
2022-10-22T20:52:48.434Z,76.92
2022-10-22T20:57:43.891Z,77.23
2022-10-22T21:00:11.945Z,77.31
2022-10-22T21:02:39.165Z,76.78
2022-10-22T21:05:06.750Z,77.22
2022-10-22T21:07:33.795Z,76.82
2022-10-22T21:10:00.660Z,76.82
2022-10-22T21:12:27.740Z,77.06
2022-10-22T21:14:54.679Z,76.77
2022-10-22T21:17:21.681Z,76.87
2022-10-22T21:19:48.521Z,76.93
2022-10-22T21:22:15.479Z,76.71
2022-10-22T21:24:42.302Z,77.06
2022-10-22T21:27:09.448Z,76.88
2022-10-22T21:29:36.496Z,77.12
2022-10-22T21:32:03.635Z,77.01
2022-10-22T21:34:33.258Z,77.26
2022-10-22T21:37:02.316Z,77.26
2022-10-22T21:39:29.305Z,77.09
2022-10-22T21:41:56.345Z,77.22
2022-10-22T21:44:23.240Z,77.51
2022-10-22T21:46:50.382Z,77.19
2022-10-22T21:49:17.258Z,77.05
2022-10-22T21:51:44.626Z,77.16
2022-10-22T21:54:12.764Z,77.31
2022-10-22T21:56:41.295Z,77.03
2022-10-22T21:59:08.899Z,77.32
2022-10-22T22:01:36.293Z,77.40
2022-10-22T22:04:03.370Z,76.93
2022-10-22T22:06:33.321Z,76.95
2022-10-22T22:09:02.512Z,77.22
2022-10-22T22:11:30.903Z,77.20
2022-10-22T22:13:59.094Z,77.36
2022-10-22T22:16:31.130Z,77.49
2022-10-22T22:19:08.562Z,77.37
2022-10-22T22:21:41.096Z,77.69
2022-10-22T22:24:11.566Z,77.58
2022-10-22T22:26:39.932Z,78.12
2022-10-22T22:29:06.869Z,77.93
2022-10-22T22:31:37.372Z,77.97
2022-10-22T22:34:12.764Z,78.20
2022-10-22T22:36:43.723Z,78.38
2022-10-22T22:39:20.097Z,78.38
2022-10-22T22:41:47.578Z,78.55
2022-10-22T22:44:15.235Z,78.18
2022-10-22T22:46:42.894Z,78.68
2022-10-22T22:49:10.160Z,78.73
2022-10-22T22:51:37.138Z,78.60
2022-10-22T22:54:04.154Z,78.63
2022-10-22T22:56:34.310Z,78.60
2022-10-22T22:59:01.960Z,78.76
2022-10-22T23:01:36.240Z,78.64
2022-10-22T23:04:12.628Z,78.91
2022-10-22T23:06:39.893Z,78.45
2022-10-22T23:09:10.179Z,78.37
2022-10-22T23:11:38.629Z,78.71
2022-10-22T23:14:08.342Z,78.72
2022-10-22T23:16:38.016Z,78.99
2022-10-22T23:19:06.203Z,78.87
2022-10-22T23:21:39.045Z,78.82
2022-10-22T23:24:14.121Z,78.95
2022-10-22T23:26:46.858Z,78.85
2022-10-22T23:29:18.029Z,79.11
2022-10-22T23:31:46.580Z,78.40
2022-10-22T23:36:50.927Z,78.57
2022-10-22T23:39:21.938Z,78.71
2022-10-22T23:41:49.075Z,78.52
2022-10-22T23:44:16.260Z,78.74
2022-10-22T23:46:43.412Z,78.47
2022-10-22T23:49:11.806Z,78.83
2022-10-22T23:51:40.582Z,79.13
2022-10-22T23:54:12.688Z,78.67
2022-10-22T23:56:39.761Z,78.52
2022-10-22T23:59:08.067Z,78.70
